Terminal Aerodrome Forecast
Issued by NWS Pittsburgh, PA

Current Version | Previous Version | Graphics & Text | Print | Product List | Glossary On
Versions: 1 2 3 4 5 6 7 8 9 10 11 12 13 14 15 16 17 18 19 20 21 22 23 24 25 26 27 28 29 30 31 32 33 34 35 36 37 38 39
000
FTUS41 KPBZ 012335
TAFPIT
TAF
KPIT 012335Z 0200/0306 VRB04KT P6SM SCT050 BKN090
     FM020800 00000KT P6SM VCSH OVC040
     FM021000 VRB03KT 5SM -SHRA OVC010
     FM021500 28014G21KT P6SM OVC025
     FM021600 27008G16KT P6SM BKN040=

USA.gov is the U.S. government's official web portal to all federal, state and local government web resources and services.